Time;durP1;ratioP1;P1;durP2;ratioP2;P2;SDS_P1;SDS_P2;PMS_P1;PMS_P2;Temp;Humidity;BMP_temperature;BMP_pressure;BME280_temperature;BME280_humidity;BME280_pressure;Samples;Min_cycle;Max_cycle;Signal;HPM_P1;HPM_P2
2021/04/23 00:00:56;;;;;;;11.00;7.23;;;;;;;;;;2081255;28;20169;-57
2021/04/23 00:01:57;;;;;;;13.57;8.23;;;;;;;;;;2074408;28;20184;-60
2021/04/23 00:02:59;;;;;;;12.57;8.07;;;;;;;;;;2076498;28;20200;-57
2021/04/23 00:04:01;;;;;;;11.93;8.53;;;;;;;;;;2080152;28;20170;-59
2021/04/23 00:05:01;;;;;;;15.30;8.10;;;;;;;;;;2075010;28;20208;-58
2021/04/23 00:06:08;;;;;;;14.20;8.13;;;;;;;;;;2080356;28;20259;-56
2021/04/23 00:07:08;;;;;;;16.40;8.10;;;;;;;;;;2075964;28;20184;-58
2021/04/23 00:08:09;;;;;;;13.40;7.70;;;;;;;;;;2078721;28;20177;-60
2021/04/23 00:09:12;;;;;;;14.30;7.27;;;;;;;;;;2076424;28;20195;-59
2021/04/23 00:10:13;;;;;;;11.90;7.80;;;;;;;;;;2079162;28;20187;-61
2021/04/23 00:11:14;;;;;;;12.53;7.83;;;;;;;;;;2079216;28;20181;-59
2021/04/23 00:12:14;;;;;;;16.73;8.47;;;;;;;;;;2076140;28;20528;-60
2021/04/23 00:13:15;;;;;;;10.03;8.43;;;;;;;;;;2076865;28;20631;-57
2021/04/23 00:14:16;;;;;;;14.30;8.33;;;;;;;;;;2076867;28;20176;-58
2021/04/23 00:15:18;;;;;;;12.80;8.17;;;;;;;;;;2078472;28;20181;-60
2021/04/23 00:16:18;;;;;;;14.80;8.07;;;;;;;;;;2073998;28;20180;-60
2021/04/23 00:17:18;;;;;;;14.80;8.30;;;;;;;;;;2077742;28;20648;-56
2021/04/23 00:18:19;;;;;;;10.80;7.57;;;;;;;;;;2077441;28;20180;-61
2021/04/23 00:19:21;;;;;;;13.13;8.40;;;;;;;;;;2077441;28;20684;-58
2021/04/23 00:20:22;;;;;;;13.23;8.50;;;;;;;;;;2077414;28;20209;-56
2021/04/23 00:21:23;;;;;;;14.33;8.40;;;;;;;;;;2079281;28;20165;-55
2021/04/23 00:22:23;;;;;;;12.63;7.53;;;;;;;;;;2079550;28;20565;-54
2021/04/23 00:23:24;;;;;;;12.63;9.00;;;;;;;;;;2082501;28;20179;-57
2021/04/23 00:24:25;;;;;;;17.87;8.67;;;;;;;;;;2077348;28;20176;-62
2021/04/23 00:25:25;;;;;;;14.20;7.80;;;;;;;;;;2078603;28;20231;-60
2021/04/23 00:26:26;;;;;;;14.30;8.33;;;;;;;;;;2075081;28;20168;-59
2021/04/23 00:27:26;;;;;;;15.77;8.93;;;;;;;;;;2077335;28;20220;-59
2021/04/23 00:28:26;;;;;;;11.83;8.37;;;;;;;;;;2077752;28;20187;-56
2021/04/23 00:29:27;;;;;;;14.13;8.67;;;;;;;;;;2067191;28;20173;-59
2021/04/23 00:30:29;;;;;;;11.73;8.27;;;;;;;;;;2078160;28;20628;-59
2021/04/23 00:31:29;;;;;;;13.10;8.80;;;;;;;;;;2075650;28;20634;-58
2021/04/23 00:33:49;;;;;;;14.47;8.50;;;;;;;;;;2072834;28;20271;-57
2021/04/23 00:34:49;;;;;;;13.03;8.87;;;;;;;;;;2073709;28;20219;-56
2021/04/23 00:35:50;;;;;;;15.47;8.70;;;;;;;;;;2071825;28;20288;-58
2021/04/23 00:36:50;;;;;;;10.70;8.27;;;;;;;;;;2072961;28;20173;-60
2021/04/23 00:37:51;;;;;;;15.57;8.90;;;;;;;;;;2072576;28;20269;-58
2021/04/23 00:38:52;;;;;;;17.67;8.57;;;;;;;;;;2079048;28;20172;-59
2021/04/23 00:39:52;;;;;;;13.40;8.93;;;;;;;;;;2081570;28;20360;-57
2021/04/23 00:40:54;;;;;;;11.83;8.17;;;;;;;;;;2072870;28;20268;-56
2021/04/23 00:41:54;;;;;;;12.87;8.20;;;;;;;;;;2073092;28;20244;-58
2021/04/23 00:42:55;;;;;;;19.17;9.10;;;;;;;;;;2064923;28;20694;-56
2021/04/23 00:43:57;;;;;;;19.80;9.77;;;;;;;;;;2071481;28;20209;-57
2021/04/23 00:44:57;;;;;;;16.67;8.57;;;;;;;;;;2081841;28;20203;-57
2021/04/23 00:45:58;;;;;;;16.77;9.93;;;;;;;;;;2078151;28;20193;-55
2021/04/23 00:46:58;;;;;;;11.83;8.50;;;;;;;;;;2079830;28;20191;-59
2021/04/23 00:47:59;;;;;;;13.70;9.77;;;;;;;;;;2074609;28;20223;-58
2021/04/23 00:49:01;;;;;;;11.53;9.47;;;;;;;;;;2079690;28;20173;-54
2021/04/23 00:50:05;;;;;;;19.80;9.53;;;;;;;;;;2074578;28;20181;-59
2021/04/23 00:51:06;;;;;;;15.73;9.10;;;;;;;;;;2079304;28;20225;-55
2021/04/23 00:52:07;;;;;;;13.27;8.83;;;;;;;;;;2075317;28;20231;-58
2021/04/23 00:53:09;;;;;;;14.10;9.87;;;;;;;;;;2078359;28;20647;-59
2021/04/23 00:54:09;;;;;;;15.77;9.07;;;;;;;;;;2075559;28;20189;-57
2021/04/23 00:55:10;;;;;;;13.97;8.70;;;;;;;;;;2080899;28;20893;-58
2021/04/23 00:56:12;;;;;;;14.20;9.47;;;;;;;;;;2088818;28;20202;-56
2021/04/23 00:57:12;;;;;;;19.03;9.67;;;;;;;;;;2083052;28;20192;-58
2021/04/23 00:58:14;;;;;;;16.70;9.03;;;;;;;;;;2073610;28;20520;-58
2021/04/23 00:59:15;;;;;;;14.23;8.33;;;;;;;;;;2075663;28;20188;-61
2021/04/23 01:00:16;;;;;;;18.30;9.63;;;;;;;;;;2073894;28;20638;-60
2021/04/23 01:01:18;;;;;;;13.07;8.83;;;;;;;;;;2074009;28;20637;-60
2021/04/23 01:02:19;;;;;;;21.20;9.53;;;;;;;;;;2073985;28;20231;-62
2021/04/23 01:03:20;;;;;;;17.80;9.70;;;;;;;;;;2073181;28;20224;-61
2021/04/23 01:04:21;;;;;;;14.87;8.97;;;;;;;;;;2073391;28;20625;-60
2021/04/23 01:05:26;;;;;;;16.17;8.73;;;;;;;;;;2073091;28;20286;-61
2021/04/23 01:06:29;;;;;;;12.50;8.43;;;;;;;;;;2070618;28;20642;-58
2021/04/23 01:07:29;;;;;;;14.47;9.37;;;;;;;;;;2073469;28;20173;-61
2021/04/23 01:08:29;;;;;;;14.73;8.80;;;;;;;;;;2072592;28;20637;-58
2021/04/23 01:09:30;;;;;;;15.80;9.07;;;;;;;;;;2072785;28;20181;-60
2021/04/23 01:10:30;;;;;;;13.43;9.47;;;;;;;;;;2073369;28;20181;-59
2021/04/23 01:11:31;;;;;;;11.30;9.00;;;;;;;;;;2073355;28;20266;-61
2021/04/23 01:12:31;;;;;;;15.63;8.57;;;;;;;;;;2073204;28;20189;-61
2021/04/23 01:13:32;;;;;;;14.30;8.50;;;;;;;;;;2072199;28;20271;-61
2021/04/23 01:14:32;;;;;;;14.93;10.27;;;;;;;;;;2067128;28;20216;-59
2021/04/23 01:15:33;;;;;;;14.27;9.20;;;;;;;;;;2077857;28;20196;-60
2021/04/23 01:16:34;;;;;;;17.30;9.47;;;;;;;;;;2071139;28;20204;-60
2021/04/23 01:17:34;;;;;;;17.37;10.47;;;;;;;;;;2071769;28;20181;-58
2021/04/23 01:18:35;;;;;;;15.67;9.47;;;;;;;;;;2071310;28;20179;-60
2021/04/23 01:19:35;;;;;;;14.90;9.17;;;;;;;;;;2072194;28;20180;-61
2021/04/23 01:20:36;;;;;;;14.43;8.90;;;;;;;;;;2072779;28;20195;-61
2021/04/23 01:21:36;;;;;;;19.13;10.80;;;;;;;;;;2071857;28;20196;-56
2021/04/23 01:22:37;;;;;;;16.90;10.20;;;;;;;;;;2071801;28;20200;-60
2021/04/23 01:23:44;;;;;;;16.43;8.93;;;;;;;;;;2072516;28;20190;-60
2021/04/23 01:24:45;;;;;;;15.97;9.30;;;;;;;;;;2072167;28;20185;-58
2021/04/23 01:25:45;;;;;;;15.37;9.50;;;;;;;;;;2073261;28;20591;-61
2021/04/23 01:26:55;;;;;;;19.90;10.10;;;;;;;;;;2073010;28;20176;-60
2021/04/23 01:27:56;;;;;;;19.70;9.07;;;;;;;;;;2073423;28;20299;-59
2021/04/23 01:28:56;;;;;;;12.83;9.37;;;;;;;;;;2073020;28;20189;-60
2021/04/23 01:29:57;;;;;;;15.87;10.17;;;;;;;;;;2063991;28;20176;-59
2021/04/23 01:30:58;;;;;;;13.90;9.57;;;;;;;;;;2062812;28;20173;-61
2021/04/23 01:31:58;;;;;;;15.70;9.37;;;;;;;;;;2073073;28;20184;-58
2021/04/23 01:32:58;;;;;;;14.53;9.50;;;;;;;;;;2072079;28;20643;-60
2021/04/23 01:34:00;;;;;;;19.07;9.77;;;;;;;;;;2071316;28;20188;-61
2021/04/23 01:35:01;;;;;;;20.20;9.90;;;;;;;;;;2072950;28;20177;-57
2021/04/23 01:36:01;;;;;;;15.13;8.87;;;;;;;;;;2073269;28;20207;-60
2021/04/23 01:37:02;;;;;;;17.90;10.00;;;;;;;;;;2073436;28;20699;-61
2021/04/23 01:38:03;;;;;;;16.80;9.93;;;;;;;;;;2072407;28;20181;-60
2021/04/23 01:39:06;;;;;;;21.13;9.87;;;;;;;;;;2064605;28;20185;-59
2021/04/23 01:40:08;;;;;;;14.57;9.43;;;;;;;;;;2072333;28;20180;-61
2021/04/23 01:41:08;;;;;;;15.27;9.63;;;;;;;;;;2072954;28;20682;-63
2021/04/23 01:42:10;;;;;;;15.67;9.50;;;;;;;;;;2070999;28;20224;-58
2021/04/23 01:43:11;;;;;;;17.43;9.17;;;;;;;;;;2071959;28;20199;-58
2021/04/23 01:44:11;;;;;;;14.07;9.27;;;;;;;;;;2072182;28;20184;-59
2021/04/23 01:45:12;;;;;;;18.37;9.57;;;;;;;;;;2072360;28;20204;-59
2021/04/23 01:46:13;;;;;;;14.07;8.63;;;;;;;;;;2075179;28;20187;-60
2021/04/23 01:47:13;;;;;;;16.10;9.70;;;;;;;;;;2072039;28;20639;-61
2021/04/23 01:48:14;;;;;;;18.57;10.10;;;;;;;;;;2072621;28;20188;-59
2021/04/23 01:49:16;;;;;;;16.70;10.03;;;;;;;;;;2070932;28;20176;-60
2021/04/23 01:50:18;;;;;;;17.80;10.17;;;;;;;;;;2069733;28;20184;-60
2021/04/23 01:51:18;;;;;;;14.73;10.23;;;;;;;;;;2070840;28;20264;-61
2021/04/23 01:52:19;;;;;;;17.83;9.67;;;;;;;;;;2070829;28;20600;-59
2021/04/23 01:53:19;;;;;;;16.80;9.73;;;;;;;;;;2072129;28;20206;-59
2021/04/23 01:54:20;;;;;;;16.00;9.80;;;;;;;;;;2071178;28;20173;-59
2021/04/23 01:55:21;;;;;;;15.33;9.70;;;;;;;;;;2074530;28;20568;-61
2021/04/23 01:56:21;;;;;;;15.20;10.00;;;;;;;;;;2072887;28;20200;-59
2021/04/23 01:57:22;;;;;;;21.47;10.37;;;;;;;;;;2072606;28;20205;-61
2021/04/23 01:58:22;;;;;;;19.50;10.37;;;;;;;;;;2072920;28;20196;-60
2021/04/23 01:59:23;;;;;;;16.93;9.97;;;;;;;;;;2073278;28;20227;-59
2021/04/23 02:00:27;;;;;;;18.73;10.27;;;;;;;;;;2073357;28;20262;-61
2021/04/23 02:01:28;;;;;;;18.00;10.10;;;;;;;;;;2074814;28;20179;-63
2021/04/23 02:02:28;;;;;;;15.97;9.67;;;;;;;;;;2074931;28;20661;-61
2021/04/23 02:03:29;;;;;;;15.67;9.30;;;;;;;;;;2075646;28;20200;-58
2021/04/23 02:04:29;;;;;;;17.90;9.77;;;;;;;;;;2072701;28;20188;-60
2021/04/23 02:05:29;;;;;;;17.67;9.90;;;;;;;;;;2075004;28;20685;-62
2021/04/23 02:06:32;;;;;;;17.53;10.70;;;;;;;;;;2077977;28;20264;-59
2021/04/23 02:07:32;;;;;;;22.33;10.37;;;;;;;;;;2073845;28;20169;-58
2021/04/23 02:08:33;;;;;;;17.70;9.93;;;;;;;;;;2072849;28;20157;-59
2021/04/23 02:09:33;;;;;;;22.27;9.53;;;;;;;;;;2082238;28;20184;-59
2021/04/23 02:10:35;;;;;;;13.37;9.27;;;;;;;;;;2082708;28;20271;-57
2021/04/23 02:11:37;;;;;;;15.17;9.13;;;;;;;;;;2076628;28;20200;-60
2021/04/23 02:12:37;;;;;;;19.70;11.30;;;;;;;;;;2076353;28;20192;-64
2021/04/23 02:13:38;;;;;;;19.70;10.47;;;;;;;;;;2077172;28;20188;-60
2021/04/23 02:14:39;;;;;;;15.27;9.63;;;;;;;;;;2076202;28;20211;-61
2021/04/23 02:15:39;;;;;;;17.60;10.03;;;;;;;;;;2074999;28;20196;-59
2021/04/23 02:16:40;;;;;;;16.73;11.10;;;;;;;;;;2075706;28;20187;-62
2021/04/23 02:17:41;;;;;;;14.83;9.73;;;;;;;;;;2075021;28;20268;-58
2021/04/23 02:18:42;;;;;;;16.17;10.70;;;;;;;;;;2074727;28;20263;-60
2021/04/23 02:19:42;;;;;;;15.93;9.87;;;;;;;;;;2074968;28;20658;-60
2021/04/23 02:20:42;;;;;;;18.47;10.57;;;;;;;;;;2074993;28;20177;-61
2021/04/23 02:21:43;;;;;;;18.00;10.47;;;;;;;;;;2074481;28;20176;-61
2021/04/23 02:22:44;;;;;;;23.17;11.50;;;;;;;;;;2074981;28;20295;-60
2021/04/23 02:23:47;;;;;;;17.00;10.13;;;;;;;;;;2073930;28;20185;-57
2021/04/23 02:24:48;;;;;;;16.83;10.53;;;;;;;;;;2075117;28;20560;-60
2021/04/23 02:25:49;;;;;;;17.97;10.37;;;;;;;;;;2074142;28;20204;-61
2021/04/23 02:26:49;;;;;;;18.07;9.93;;;;;;;;;;2074082;28;20181;-60
2021/04/23 02:27:50;;;;;;;16.43;9.77;;;;;;;;;;2072244;28;20259;-61
2021/04/23 02:28:51;;;;;;;20.03;11.67;;;;;;;;;;2074074;28;20205;-61
2021/04/23 02:29:51;;;;;;;19.20;10.10;;;;;;;;;;2074150;28;20254;-61
2021/04/23 02:31:03;;;;;;;20.93;11.03;;;;;;;;;;2074720;28;20177;-55
2021/04/23 02:32:03;;;;;;;17.93;9.73;;;;;;;;;;2072922;28;20161;-59
2021/04/23 02:33:05;;;;;;;15.10;10.00;;;;;;;;;;2073303;28;20181;-59
2021/04/23 02:34:07;;;;;;;15.57;10.70;;;;;;;;;;2065338;28;20182;-59
2021/04/23 02:35:09;;;;;;;17.63;11.20;;;;;;;;;;2073035;28;20192;-60
2021/04/23 02:36:09;;;;;;;18.47;10.47;;;;;;;;;;2074682;28;20203;-61
2021/04/23 02:37:10;;;;;;;20.43;11.00;;;;;;;;;;2074367;28;20283;-61
2021/04/23 02:38:10;;;;;;;15.47;10.30;;;;;;;;;;2071876;28;20205;-60
2021/04/23 02:39:12;;;;;;;15.60;10.17;;;;;;;;;;2074456;28;21029;-61
2021/04/23 02:40:13;;;;;;;23.63;10.47;;;;;;;;;;2078594;28;20168;-60
2021/04/23 02:41:14;;;;;;;19.57;10.83;;;;;;;;;;2081427;28;20226;-61
2021/04/23 02:42:15;;;;;;;13.20;10.27;;;;;;;;;;2079699;28;20235;-62
2021/04/23 02:43:17;;;;;;;17.37;11.43;;;;;;;;;;2077889;28;20171;-61
2021/04/23 02:44:17;;;;;;;19.30;10.57;;;;;;;;;;2079755;28;20181;-62
2021/04/23 02:45:21;;;;;;;20.07;11.77;;;;;;;;;;2072331;28;20212;-61
2021/04/23 02:46:21;;;;;;;17.20;10.60;;;;;;;;;;2074670;28;20173;-60
2021/04/23 02:47:22;;;;;;;20.27;9.50;;;;;;;;;;2074584;28;20760;-61
2021/04/23 02:48:24;;;;;;;15.13;10.93;;;;;;;;;;2074211;28;20169;-60
2021/04/23 02:49:24;;;;;;;15.77;9.87;;;;;;;;;;2079495;28;20255;-60
2021/04/23 02:50:26;;;;;;;18.37;9.73;;;;;;;;;;2072309;28;20180;-61
2021/04/23 02:51:28;;;;;;;16.47;9.83;;;;;;;;;;2075050;28;20168;-60
2021/04/23 02:52:28;;;;;;;20.63;10.07;;;;;;;;;;2077213;28;20183;-61
2021/04/23 02:53:29;;;;;;;15.27;9.57;;;;;;;;;;2078899;28;20259;-59
2021/04/23 02:54:29;;;;;;;16.67;9.67;;;;;;;;;;2082672;28;20168;-58
2021/04/23 02:55:29;;;;;;;19.30;11.10;;;;;;;;;;2082053;28;20256;-61
2021/04/23 02:56:30;;;;;;;17.20;10.37;;;;;;;;;;2082087;28;20657;-62
2021/04/23 02:57:30;;;;;;;21.53;10.70;;;;;;;;;;2083008;28;20169;-59
2021/04/23 02:58:31;;;;;;;17.37;9.40;;;;;;;;;;2082752;28;20677;-55
2021/04/23 02:59:31;;;;;;;23.40;10.03;;;;;;;;;;2082436;28;20177;-59
2021/04/23 03:00:33;;;;;;;17.83;10.70;;;;;;;;;;2074145;28;20184;-58
2021/04/23 03:01:44;;;;;;;17.30;10.43;;;;;;;;;;2074100;28;20173;-58
2021/04/23 03:02:45;;;;;;;14.03;9.03;;;;;;;;;;2074778;28;20200;-59
2021/04/23 03:03:45;;;;;;;13.93;9.53;;;;;;;;;;2082312;28;20561;-60
2021/04/23 03:04:46;;;;;;;14.93;8.40;;;;;;;;;;2074144;28;20192;-59
2021/04/23 03:05:46;;;;;;;16.10;10.40;;;;;;;;;;2074433;28;20204;-59
2021/04/23 03:06:47;;;;;;;18.50;10.00;;;;;;;;;;2075024;28;20169;-59
2021/04/23 03:07:49;;;;;;;22.67;11.43;;;;;;;;;;2076438;28;20551;-59
2021/04/23 03:08:49;;;;;;;16.40;10.53;;;;;;;;;;2075450;28;20173;-60
2021/04/23 03:09:50;;;;;;;20.33;11.37;;;;;;;;;;2075127;28;20665;-60
2021/04/23 03:10:54;;;;;;;18.00;10.30;;;;;;;;;;2074064;28;20261;-60
2021/04/23 03:11:55;;;;;;;17.27;10.63;;;;;;;;;;2074976;28;20204;-59
2021/04/23 03:12:57;;;;;;;15.93;9.43;;;;;;;;;;2075593;28;20165;-59
2021/04/23 03:13:58;;;;;;;16.10;10.37;;;;;;;;;;2074561;28;20248;-61
2021/04/23 03:14:58;;;;;;;17.60;11.60;;;;;;;;;;2074769;28;20204;-58
2021/04/23 03:15:58;;;;;;;15.93;9.37;;;;;;;;;;2074558;28;20181;-58
2021/04/23 03:16:59;;;;;;;16.90;9.97;;;;;;;;;;2072456;28;20177;-56
2021/04/23 03:17:59;;;;;;;19.13;10.00;;;;;;;;;;2073937;28;20701;-55
2021/04/23 03:19:00;;;;;;;20.00;11.13;;;;;;;;;;2080259;28;20231;-59
2021/04/23 03:20:09;;;;;;;24.60;10.30;;;;;;;;;;2080146;28;20180;-56
2021/04/23 03:21:10;;;;;;;19.17;10.03;;;;;;;;;;2073511;28;20185;-58
2021/04/23 03:22:10;;;;;;;18.63;9.77;;;;;;;;;;2074141;28;20188;-57
2021/04/23 03:23:10;;;;;;;18.13;10.00;;;;;;;;;;2076791;28;20666;-58
2021/04/23 03:24:12;;;;;;;16.13;9.60;;;;;;;;;;2087291;28;20196;-61
2021/04/23 03:25:13;;;;;;;14.83;10.07;;;;;;;;;;2084695;28;20203;-60
2021/04/23 03:26:14;;;;;;;18.37;10.60;;;;;;;;;;2078396;28;20537;-59
2021/04/23 03:27:14;;;;;;;19.27;10.33;;;;;;;;;;2076395;28;20180;-59
2021/04/23 03:28:15;;;;;;;17.37;10.40;;;;;;;;;;2078562;28;20169;-61
2021/04/23 03:29:16;;;;;;;17.53;8.57;;;;;;;;;;2074019;28;20212;-62
2021/04/23 03:30:19;;;;;;;13.93;9.47;;;;;;;;;;2074099;28;20173;-58
2021/04/23 03:31:20;;;;;;;17.80;9.90;;;;;;;;;;2078187;28;20556;-61
2021/04/23 03:32:21;;;;;;;15.13;9.17;;;;;;;;;;2077999;28;20169;-60
2021/04/23 03:33:21;;;;;;;14.17;9.13;;;;;;;;;;2077234;28;20692;-59
2021/04/23 03:34:22;;;;;;;14.87;9.43;;;;;;;;;;2077603;28;20189;-58
2021/04/23 03:35:23;;;;;;;23.20;10.43;;;;;;;;;;2078476;28;20192;-60
2021/04/23 03:36:23;;;;;;;20.33;9.60;;;;;;;;;;2077749;28;20788;-59
2021/04/23 03:37:23;;;;;;;17.30;10.67;;;;;;;;;;2078584;28;20558;-59
2021/04/23 03:38:25;;;;;;;15.70;9.63;;;;;;;;;;2077425;28;20177;-57
2021/04/23 03:39:25;;;;;;;16.93;9.73;;;;;;;;;;2079311;28;20191;-59
2021/04/23 03:40:27;;;;;;;14.60;9.00;;;;;;;;;;2079194;28;20176;-62
2021/04/23 03:41:31;;;;;;;18.03;10.20;;;;;;;;;;2079508;28;20641;-61
2021/04/23 03:42:32;;;;;;;16.17;9.80;;;;;;;;;;2076287;28;20177;-60
2021/04/23 03:43:32;;;;;;;19.27;10.60;;;;;;;;;;2079866;28;20184;-61
2021/04/23 03:44:33;;;;;;;16.97;9.70;;;;;;;;;;2075682;28;20188;-61
2021/04/23 03:45:33;;;;;;;18.77;9.80;;;;;;;;;;2079186;28;20692;-60
2021/04/23 03:46:34;;;;;;;12.83;8.90;;;;;;;;;;2075632;28;20183;-60
2021/04/23 03:47:34;;;;;;;19.97;9.47;;;;;;;;;;2065518;28;20201;-61
2021/04/23 03:48:34;;;;;;;18.07;10.57;;;;;;;;;;2060725;28;20659;-60
2021/04/23 03:49:35;;;;;;;15.50;10.13;;;;;;;;;;2071490;28;20173;-60
2021/04/23 03:50:36;;;;;;;20.13;9.80;;;;;;;;;;2073175;28;20621;-59
2021/04/23 03:51:36;;;;;;;15.33;9.90;;;;;;;;;;2073792;28;20191;-59
2021/04/23 03:52:37;;;;;;;14.57;9.77;;;;;;;;;;2073681;28;20181;-61
2021/04/23 03:53:37;;;;;;;15.13;9.50;;;;;;;;;;2079643;28;20165;-61
2021/04/23 03:54:37;;;;;;;16.90;10.07;;;;;;;;;;2075394;28;20649;-59
2021/04/23 03:55:43;;;;;;;17.00;9.83;;;;;;;;;;2080588;28;20208;-60
2021/04/23 03:56:43;;;;;;;14.93;9.47;;;;;;;;;;2073482;28;20181;-59
2021/04/23 03:57:43;;;;;;;21.57;10.13;;;;;;;;;;2073693;28;20185;-57
2021/04/23 03:58:44;;;;;;;16.20;9.67;;;;;;;;;;2065334;28;20185;-59
2021/04/23 03:59:44;;;;;;;14.90;9.33;;;;;;;;;;2079246;28;20172;-60
2021/04/23 04:00:47;;;;;;;14.53;9.10;;;;;;;;;;2073793;28;20181;-60
2021/04/23 04:01:47;;;;;;;14.23;8.67;;;;;;;;;;2073803;28;20566;-60
2021/04/23 04:02:48;;;;;;;17.27;9.70;;;;;;;;;;2073708;28;20181;-57
2021/04/23 04:03:49;;;;;;;14.90;9.17;;;;;;;;;;2078596;28;20254;-60
2021/04/23 04:04:49;;;;;;;15.40;9.23;;;;;;;;;;2072471;28;20677;-62
2021/04/23 04:05:49;;;;;;;17.23;10.13;;;;;;;;;;2064957;28;20213;-60
2021/04/23 04:06:50;;;;;;;18.33;9.30;;;;;;;;;;2065477;28;20217;-59
2021/04/23 04:07:50;;;;;;;11.27;8.50;;;;;;;;;;2077398;28;20256;-58
2021/04/23 04:08:51;;;;;;;18.07;9.30;;;;;;;;;;2080987;28;20550;-55
2021/04/23 04:09:51;;;;;;;16.77;9.70;;;;;;;;;;2081344;28;20187;-60
2021/04/23 04:10:52;;;;;;;19.83;9.73;;;;;;;;;;2082118;28;20160;-59
2021/04/23 04:11:52;;;;;;;15.33;9.63;;;;;;;;;;2065166;28;20201;-57
2021/04/23 04:12:53;;;;;;;15.87;9.27;;;;;;;;;;2065039;28;20198;-58
2021/04/23 04:13:53;;;;;;;18.13;9.50;;;;;;;;;;2073572;28;20238;-61
2021/04/23 04:14:53;;;;;;;13.23;9.37;;;;;;;;;;2081552;28;20172;-61
2021/04/23 04:15:53;;;;;;;14.40;8.33;;;;;;;;;;2073589;28;20653;-58
2021/04/23 04:16:54;;;;;;;15.10;9.13;;;;;;;;;;2073439;28;20185;-60
2021/04/23 04:17:54;;;;;;;18.47;9.33;;;;;;;;;;2075237;28;20231;-60
2021/04/23 04:18:54;;;;;;;19.63;9.70;;;;;;;;;;2076212;28;20181;-60
2021/04/23 04:19:55;;;;;;;18.97;10.50;;;;;;;;;;2066101;28;20264;-57
2021/04/23 04:20:55;;;;;;;16.43;9.23;;;;;;;;;;2072875;28;20263;-57
2021/04/23 04:21:55;;;;;;;14.07;9.47;;;;;;;;;;2074180;28;20245;-59
2021/04/23 04:22:56;;;;;;;16.83;10.03;;;;;;;;;;2081003;28;20644;-59
2021/04/23 04:23:57;;;;;;;18.83;10.80;;;;;;;;;;2073974;28;20203;-58
2021/04/23 04:24:57;;;;;;;17.60;10.73;;;;;;;;;;2079723;28;20172;-61
2021/04/23 04:25:58;;;;;;;17.53;9.53;;;;;;;;;;2073931;28;20552;-57
2021/04/23 04:26:59;;;;;;;16.27;10.00;;;;;;;;;;2084310;28;20192;-59
2021/04/23 04:27:59;;;;;;;20.10;10.47;;;;;;;;;;2087930;28;20183;-60
2021/04/23 04:28:59;;;;;;;17.67;9.77;;;;;;;;;;2074182;28;20173;-57
2021/04/23 04:30:00;;;;;;;13.97;9.40;;;;;;;;;;2075169;28;20189;-57
2021/04/23 04:31:00;;;;;;;18.73;9.80;;;;;;;;;;2080159;28;20178;-59
2021/04/23 04:32:00;;;;;;;16.97;10.27;;;;;;;;;;2082555;28;20672;-59
2021/04/23 04:33:02;;;;;;;15.63;9.33;;;;;;;;;;2082568;28;20180;-55
2021/04/23 04:34:02;;;;;;;16.97;8.90;;;;;;;;;;2072348;28;20547;-55
2021/04/23 04:35:03;;;;;;;15.93;9.70;;;;;;;;;;2071299;28;20182;-57
2021/04/23 04:36:03;;;;;;;18.10;9.70;;;;;;;;;;2073757;28;20232;-59
2021/04/23 04:37:04;;;;;;;15.60;9.70;;;;;;;;;;2066339;28;20178;-59
2021/04/23 04:38:07;;;;;;;15.13;9.53;;;;;;;;;;2077383;28;20172;-58
2021/04/23 04:39:07;;;;;;;16.63;10.03;;;;;;;;;;2068827;28;20181;-60
2021/04/23 04:40:08;;;;;;;12.77;9.40;;;;;;;;;;2078380;28;20649;-61
2021/04/23 04:41:08;;;;;;;15.87;10.03;;;;;;;;;;2075222;28;20600;-60
2021/04/23 04:42:09;;;;;;;16.73;9.83;;;;;;;;;;2080564;28;20186;-57
2021/04/23 04:43:10;;;;;;;15.17;9.87;;;;;;;;;;2077994;28;20232;-60
2021/04/23 04:44:10;;;;;;;16.70;10.50;;;;;;;;;;2076004;28;20188;-57
2021/04/23 04:45:13;;;;;;;12.83;8.80;;;;;;;;;;2081256;28;20199;-57
2021/04/23 04:46:15;;;;;;;19.60;10.50;;;;;;;;;;2079045;28;20227;-58
2021/04/23 04:47:15;;;;;;;15.73;9.53;;;;;;;;;;2077860;28;20188;-59
2021/04/23 04:48:16;;;;;;;17.13;8.97;;;;;;;;;;2076156;28;20612;-60
2021/04/23 04:49:16;;;;;;;18.50;10.13;;;;;;;;;;2077463;28;20248;-59
2021/04/23 04:50:24;;;;;;;15.73;9.43;;;;;;;;;;2076501;28;20205;-59
2021/04/23 04:51:27;;;;;;;18.00;9.87;;;;;;;;;;2078321;28;20183;-60
2021/04/23 04:52:27;;;;;;;19.57;10.43;;;;;;;;;;2072447;28;20181;-56
2021/04/23 04:53:28;;;;;;;14.70;9.03;;;;;;;;;;2080605;28;20195;-59
2021/04/23 04:54:29;;;;;;;14.03;9.30;;;;;;;;;;2071294;28;20272;-60
2021/04/23 04:55:30;;;;;;;18.30;9.33;;;;;;;;;;2075451;28;20222;-59
2021/04/23 04:56:31;;;;;;;16.47;9.57;;;;;;;;;;2077139;28;20646;-59
2021/04/23 04:57:33;;;;;;;11.00;7.97;;;;;;;;;;2081607;28;20183;-59
2021/04/23 04:58:35;;;;;;;13.23;9.17;;;;;;;;;;2073677;28;20546;-56
2021/04/23 04:59:35;;;;;;;13.97;9.33;;;;;;;;;;2079797;28;20267;-60
2021/04/23 05:00:38;;;;;;;15.00;8.87;;;;;;;;;;2069939;28;20182;-59
2021/04/23 05:01:39;;;;;;;18.27;9.93;;;;;;;;;;2070761;28;20180;-59
2021/04/23 05:02:39;;;;;;;16.17;9.77;;;;;;;;;;2079493;28;20180;-58
2021/04/23 05:03:39;;;;;;;16.47;10.03;;;;;;;;;;2073435;28;20638;-60
2021/04/23 05:04:40;;;;;;;16.23;9.20;;;;;;;;;;2072955;28;20177;-60
2021/04/23 05:05:41;;;;;;;15.27;8.63;;;;;;;;;;2079579;28;20207;-60
2021/04/23 05:06:42;;;;;;;17.00;10.43;;;;;;;;;;2094435;22;21075;-56
2021/04/23 05:07:42;;;;;;;16.77;9.93;;;;;;;;;;2094930;28;20213;-58
2021/04/23 05:08:42;;;;;;;20.77;9.57;;;;;;;;;;2095157;28;20206;-55
2021/04/23 05:09:42;;;;;;;12.80;9.13;;;;;;;;;;2097102;28;20569;-58
2021/04/23 05:10:43;;;;;;;15.33;9.77;;;;;;;;;;2096143;28;20833;-61
2021/04/23 05:11:43;;;;;;;16.20;9.70;;;;;;;;;;2096620;28;20175;-56
2021/04/23 05:12:43;;;;;;;16.37;8.73;;;;;;;;;;2096243;28;20691;-60
2021/04/23 05:13:44;;;;;;;16.50;9.97;;;;;;;;;;2097558;28;20262;-59
2021/04/23 05:14:44;;;;;;;14.47;9.17;;;;;;;;;;2097137;28;20194;-58
2021/04/23 05:15:44;;;;;;;14.33;8.07;;;;;;;;;;2096838;28;20193;-61
2021/04/23 05:16:45;;;;;;;16.93;9.20;;;;;;;;;;2094352;28;20303;-61
2021/04/23 05:17:45;;;;;;;14.93;9.07;;;;;;;;;;2089159;28;20187;-61
2021/04/23 05:18:45;;;;;;;14.83;9.00;;;;;;;;;;2087975;28;20176;-61
2021/04/23 05:19:46;;;;;;;15.90;9.07;;;;;;;;;;2084650;28;20639;-62
2021/04/23 05:20:46;;;;;;;17.20;9.67;;;;;;;;;;2091757;28;20532;-60
2021/04/23 05:21:47;;;;;;;18.77;8.83;;;;;;;;;;2084986;28;20564;-61
2021/04/23 05:22:48;;;;;;;12.97;8.87;;;;;;;;;;2088020;28;20712;-61
2021/04/23 05:23:48;;;;;;;13.30;8.23;;;;;;;;;;2087059;28;20195;-60
2021/04/23 05:24:48;;;;;;;13.57;8.53;;;;;;;;;;2074960;28;20177;-61
2021/04/23 05:25:48;;;;;;;13.97;9.37;;;;;;;;;;2084015;28;21078;-61
2021/04/23 05:26:49;;;;;;;12.73;8.90;;;;;;;;;;2081308;28;20641;-58
2021/04/23 05:27:50;;;;;;;15.70;8.57;;;;;;;;;;2088800;28;20172;-61
2021/04/23 05:28:50;;;;;;;14.90;7.97;;;;;;;;;;2081028;28;20228;-60
2021/04/23 05:29:50;;;;;;;14.07;8.33;;;;;;;;;;2086442;28;20267;-58
2021/04/23 05:30:50;;;;;;;11.33;8.30;;;;;;;;;;2088798;28;20178;-60
2021/04/23 05:31:51;;;;;;;14.57;8.47;;;;;;;;;;2083773;28;20875;-59
2021/04/23 05:32:51;;;;;;;11.43;8.20;;;;;;;;;;2088242;28;20617;-60
2021/04/23 05:33:51;;;;;;;16.77;8.70;;;;;;;;;;2089296;28;20521;-61
2021/04/23 05:34:52;;;;;;;12.03;8.67;;;;;;;;;;2089613;28;20258;-61
2021/04/23 05:35:52;;;;;;;11.40;7.93;;;;;;;;;;2092729;28;20168;-59
2021/04/23 05:36:52;;;;;;;15.07;8.43;;;;;;;;;;2097289;28;20194;-60
2021/04/23 05:37:53;;;;;;;13.27;7.57;;;;;;;;;;2094257;28;20238;-61
2021/04/23 05:38:53;;;;;;;14.03;8.40;;;;;;;;;;2089283;28;20521;-63
2021/04/23 05:39:53;;;;;;;24.53;9.33;;;;;;;;;;2093041;28;20184;-60
2021/04/23 05:40:54;;;;;;;12.63;7.97;;;;;;;;;;2094098;28;20174;-56
2021/04/23 05:41:54;;;;;;;15.10;8.80;;;;;;;;;;2087091;28;20297;-61
2021/04/23 05:42:54;;;;;;;14.60;9.00;;;;;;;;;;2088769;28;20178;-61
2021/04/23 05:43:55;;;;;;;15.63;8.93;;;;;;;;;;2088115;28;20176;-62
2021/04/23 05:44:55;;;;;;;16.53;9.23;;;;;;;;;;2085520;28;20168;-58
2021/04/23 05:45:56;;;;;;;14.13;8.87;;;;;;;;;;2091827;28;20171;-61
2021/04/23 05:46:56;;;;;;;11.27;8.40;;;;;;;;;;2089443;28;20201;-61
2021/04/23 05:47:57;;;;;;;16.73;9.50;;;;;;;;;;2089961;28;20175;-59
2021/04/23 05:48:57;;;;;;;12.87;8.70;;;;;;;;;;2097223;28;20777;-59
2021/04/23 05:49:57;;;;;;;12.67;8.97;;;;;;;;;;2091771;28;20172;-60
2021/04/23 05:50:57;;;;;;;11.90;8.43;;;;;;;;;;2088144;28;20818;-61
2021/04/23 05:51:58;;;;;;;13.97;8.90;;;;;;;;;;2084675;28;20661;-61
2021/04/23 05:52:58;;;;;;;16.07;8.60;;;;;;;;;;2095634;28;20187;-61
2021/04/23 05:53:59;;;;;;;15.50;8.87;;;;;;;;;;2089783;28;20163;-60
2021/04/23 05:54:59;;;;;;;11.43;8.33;;;;;;;;;;2097337;28;20190;-59
2021/04/23 05:55:59;;;;;;;12.53;8.57;;;;;;;;;;2091044;28;20169;-60
2021/04/23 05:57:00;;;;;;;12.53;8.10;;;;;;;;;;2082292;28;20195;-58
2021/04/23 05:58:01;;;;;;;13.57;7.60;;;;;;;;;;2084346;28;20181;-62
2021/04/23 05:59:02;;;;;;;14.73;8.57;;;;;;;;;;2087849;28;20208;-60
2021/04/23 06:00:04;;;;;;;14.20;8.27;;;;;;;;;;2092288;28;20195;-59